createdAt,value
2019-02-14T00:00:45.291Z,47.87
2019-02-14T00:03:13.791Z,49.33
2019-02-14T00:05:42.260Z,47.30
2019-02-14T00:08:10.759Z,51.13
2019-02-14T00:10:39.237Z,45.73
2019-02-14T00:13:07.725Z,43.73
2019-02-14T00:15:37.752Z,48.07
2019-02-14T00:18:06.197Z,48.17
2019-02-14T00:20:34.678Z,45.17
2019-02-14T00:23:03.177Z,44.93
2019-02-14T00:25:31.672Z,53.03
2019-02-14T00:28:00.172Z,49.73
2019-02-14T00:30:28.643Z,41.63
2019-02-14T00:32:57.131Z,48.10
2019-02-14T00:35:25.597Z,52.00
2019-02-14T00:37:54.117Z,46.73
2019-02-14T00:40:22.656Z,47.83
2019-02-14T00:42:51.154Z,47.30
2019-02-14T00:45:19.632Z,50.47
2019-02-14T00:47:48.131Z,52.83
2019-02-14T00:50:16.588Z,48.80
2019-02-14T00:52:45.083Z,47.37
2019-02-14T00:55:13.564Z,51.67
2019-02-14T00:57:42.045Z,43.30
2019-02-14T01:00:11.631Z,53.33
2019-02-14T01:02:40.154Z,49.30
2019-02-14T01:05:08.877Z,49.73
2019-02-14T01:07:37.386Z,49.83
2019-02-14T01:10:07.004Z,47.57
2019-02-14T01:12:35.524Z,45.50
2019-02-14T01:15:05.918Z,46.40
2019-02-14T01:17:34.411Z,46.27
2019-02-14T01:20:02.882Z,46.90
2019-02-14T01:22:31.377Z,46.53
2019-02-14T01:24:59.902Z,39.20
2019-02-14T01:27:28.395Z,47.07
2019-02-14T01:29:56.877Z,45.03
2019-02-14T01:32:25.355Z,42.33
2019-02-14T01:34:53.825Z,49.63
2019-02-14T01:37:22.394Z,40.83
2019-02-14T01:39:50.872Z,43.43
2019-02-14T01:42:19.381Z,50.23
2019-02-14T01:44:47.861Z,42.73
2019-02-14T01:47:16.356Z,43.40
2019-02-14T01:49:44.839Z,40.00
2019-02-14T01:52:13.341Z,41.40
2019-02-14T01:54:41.817Z,42.73
2019-02-14T01:57:10.519Z,43.93
2019-02-14T01:59:38.985Z,41.97
2019-02-14T02:02:07.481Z,43.80
2019-02-14T02:04:35.946Z,38.10
2019-02-14T02:07:04.826Z,44.37
2019-02-14T02:09:33.297Z,35.30
2019-02-14T02:12:01.913Z,39.07
2019-02-14T02:14:30.399Z,41.23
2019-02-14T02:16:58.899Z,39.33
2019-02-14T02:19:27.361Z,38.53
2019-02-14T02:21:55.831Z,39.80
2019-02-14T02:24:24.328Z,36.60
2019-02-14T02:26:52.794Z,40.23
2019-02-14T02:29:21.298Z,40.20
2019-02-14T02:31:49.769Z,42.20
2019-02-14T02:34:18.265Z,38.33
2019-02-14T02:36:46.733Z,41.83
2019-02-14T02:39:15.223Z,38.77
2019-02-14T02:41:43.687Z,38.37
2019-02-14T02:44:12.187Z,38.73
2019-02-14T02:46:40.684Z,38.23
2019-02-14T02:49:09.190Z,38.47
2019-02-14T02:51:37.660Z,35.13
2019-02-14T02:54:06.162Z,34.63
2019-02-14T02:56:34.630Z,33.40
2019-02-14T02:59:03.108Z,37.17
2019-02-14T03:01:31.586Z,34.67
2019-02-14T03:04:00.072Z,33.93
2019-02-14T03:06:28.527Z,33.73
2019-02-14T03:08:57.031Z,29.93
2019-02-14T03:11:25.524Z,31.93
2019-02-14T03:13:54.020Z,33.70
2019-02-14T03:16:22.476Z,33.87
2019-02-14T03:18:50.958Z,36.00
2019-02-14T03:21:19.422Z,35.60
2019-02-14T03:23:47.933Z,31.90
2019-02-14T03:26:16.436Z,33.20
2019-02-14T03:28:44.893Z,32.00
2019-02-14T03:31:13.379Z,32.00
2019-02-14T03:33:41.870Z,32.77
2019-02-14T03:36:18.501Z,31.73
2019-02-14T03:38:40.576Z,34.57
2019-02-14T03:41:09.113Z,27.73
2019-02-14T03:43:37.650Z,30.70
2019-02-14T03:46:06.117Z,32.77
2019-02-14T03:48:34.587Z,30.80
2019-02-14T03:51:03.091Z,29.00
2019-02-14T03:53:31.576Z,27.80
2019-02-14T03:56:00.059Z,27.23
2019-02-14T03:58:28.574Z,37.13
2019-02-14T04:00:57.044Z,28.77
2019-02-14T04:03:25.542Z,28.13
2019-02-14T04:05:54.029Z,29.03
2019-02-14T04:08:22.513Z,25.87
2019-02-14T04:10:50.989Z,30.17
2019-02-14T04:13:19.472Z,31.67
2019-02-14T04:15:48.009Z,29.57
2019-02-14T04:18:16.514Z,27.13
2019-02-14T04:20:44.989Z,28.70
2019-02-14T04:23:13.489Z,23.63
2019-02-14T04:25:41.967Z,30.07
2019-02-14T04:28:10.463Z,31.67
2019-02-14T04:30:38.944Z,25.23
2019-02-14T04:33:07.428Z,23.80
2019-02-14T04:35:35.914Z,28.20
2019-02-14T04:38:04.389Z,26.87
2019-02-14T04:40:33.827Z,28.70
2019-02-14T04:43:02.450Z,23.80
2019-02-14T04:45:30.960Z,24.70
2019-02-14T04:47:59.510Z,26.87
2019-02-14T04:50:28.015Z,27.50
2019-02-14T04:53:21.235Z,28.80
2019-02-14T04:56:45.388Z,24.57
2019-02-14T04:59:42.141Z,26.20
2019-02-14T05:02:54.399Z,27.53
2019-02-14T05:05:41.193Z,25.67
2019-02-14T05:08:37.898Z,30.97
2019-02-14T05:11:25.190Z,24.93
2019-02-14T05:14:21.523Z,25.73
2019-02-14T05:17:17.096Z,25.23
2019-02-14T05:20:17.833Z,27.53
2019-02-14T05:23:07.180Z,26.00
2019-02-14T05:26:07.843Z,23.60
2019-02-14T05:29:02.794Z,24.40
2019-02-14T05:35:55.283Z,26.17
2019-02-14T05:39:01.770Z,30.07
2019-02-14T05:42:05.760Z,25.97
2019-02-14T05:45:21.497Z,30.70
2019-02-14T05:48:09.838Z,25.90
2019-02-14T05:50:58.982Z,32.43
2019-02-14T05:53:45.067Z,27.43
2019-02-14T05:56:56.257Z,29.23
2019-02-14T05:59:44.744Z,28.73
2019-02-14T06:02:49.208Z,27.10
2019-02-14T06:06:27.247Z,32.57
2019-02-14T06:09:38.967Z,27.17
2019-02-14T06:15:55.176Z,29.07
2019-02-14T06:18:47.016Z,26.97
2019-02-14T06:21:53.458Z,29.73
2019-02-14T06:24:40.488Z,29.50
2019-02-14T06:31:12.625Z,31.20
2019-02-14T06:37:16.240Z,30.87
2019-02-14T06:40:17.320Z,29.97
2019-02-14T06:43:22.595Z,30.47
2019-02-14T06:52:37.425Z,30.37
2019-02-14T06:55:56.376Z,30.23
2019-02-14T07:01:48.735Z,30.83
2019-02-14T07:14:37.852Z,28.90
2019-02-14T07:17:55.010Z,29.73
2019-02-14T07:36:02.872Z,35.03
2019-02-14T07:38:54.955Z,27.63
2019-02-14T07:41:52.480Z,27.70
2019-02-14T07:48:01.173Z,29.70
2019-02-14T07:50:48.445Z,28.53
2019-02-14T07:53:40.839Z,32.07
2019-02-14T07:56:29.909Z,32.73
2019-02-14T08:06:17.240Z,27.53
2019-02-14T08:09:00.454Z,29.97
2019-02-14T08:11:54.061Z,33.07
2019-02-14T08:14:52.770Z,27.23
2019-02-14T08:17:43.264Z,24.23
2019-02-14T08:20:24.855Z,27.63
2019-02-14T08:28:54.775Z,30.90
2019-02-14T08:31:34.761Z,31.60
2019-02-14T08:37:26.157Z,27.33
2019-02-14T08:40:02.262Z,29.30
2019-02-14T08:42:47.926Z,25.23
2019-02-14T08:45:38.222Z,24.33
2019-02-14T08:48:20.115Z,31.67
2019-02-14T08:50:58.295Z,28.83
2019-02-14T08:53:32.699Z,33.37
2019-02-14T08:56:04.037Z,28.47
2019-02-14T08:58:37.888Z,27.80
2019-02-14T09:01:19.142Z,28.67
2019-02-14T09:04:02.883Z,29.53
2019-02-14T09:06:45.126Z,30.10
2019-02-14T09:09:26.804Z,27.03
2019-02-14T09:12:07.981Z,28.60
2019-02-14T09:14:51.086Z,27.63
2019-02-14T09:17:27.180Z,33.87
2019-02-14T09:20:06.005Z,25.30
2019-02-14T09:22:45.314Z,26.00
2019-02-14T09:25:21.925Z,26.97
2019-02-14T09:28:02.565Z,27.77
2019-02-14T09:30:41.590Z,25.00
2019-02-14T09:33:22.168Z,23.93
2019-02-14T09:36:03.581Z,22.60
2019-02-14T09:38:47.758Z,22.23
2019-02-14T09:41:21.780Z,27.10
2019-02-14T09:43:54.612Z,27.40
2019-02-14T09:46:27.808Z,27.37
2019-02-14T09:49:05.062Z,24.63
2019-02-14T09:51:35.906Z,22.20
2019-02-14T09:54:10.079Z,24.10
2019-02-14T09:56:46.077Z,23.37
2019-02-14T09:59:22.645Z,26.80
2019-02-14T10:01:59.482Z,27.30
2019-02-14T10:07:17.877Z,26.00
2019-02-14T10:09:54.287Z,25.63
2019-02-14T10:12:36.787Z,22.73
2019-02-14T10:15:09.526Z,19.73
2019-02-14T10:17:43.973Z,21.50
2019-02-14T10:20:19.749Z,22.70
2019-02-14T10:22:55.067Z,20.53
2019-02-14T10:25:31.797Z,20.67
2019-02-14T10:28:21.551Z,23.33
2019-02-14T10:30:57.488Z,19.17
2019-02-14T10:33:29.323Z,20.27
2019-02-14T10:36:04.574Z,19.47
2019-02-14T10:38:37.598Z,21.67
2019-02-14T10:41:08.893Z,16.87
2019-02-14T10:44:00.190Z,21.03
2019-02-14T10:46:40.687Z,21.53
2019-02-14T10:49:16.167Z,21.23
2019-02-14T10:51:52.522Z,21.80
2019-02-14T10:54:32.585Z,20.03
2019-02-14T10:57:09.853Z,19.83
2019-02-14T10:59:44.608Z,18.60
2019-02-14T11:02:22.348Z,17.57
2019-02-14T11:04:57.161Z,16.87
2019-02-14T11:07:32.520Z,17.10
2019-02-14T11:10:11.170Z,16.00
2019-02-14T11:15:37.198Z,16.43
2019-02-14T11:21:23.768Z,19.83
2019-02-14T11:24:06.029Z,21.67
2019-02-14T11:26:42.548Z,18.40
2019-02-14T11:29:16.138Z,17.20
2019-02-14T11:31:54.459Z,21.30
2019-02-14T11:34:31.215Z,23.47
2019-02-14T11:40:00.099Z,21.83
2019-02-14T11:43:01.887Z,22.73
2019-02-14T11:45:39.292Z,23.57
2019-02-14T11:48:13.147Z,26.30
2019-02-14T11:50:47.974Z,24.93
2019-02-14T11:53:30.896Z,23.80
2019-02-14T11:56:10.050Z,27.80
2019-02-14T11:58:53.595Z,27.97
2019-02-14T12:01:30.984Z,25.40
2019-02-14T12:04:05.893Z,21.67
2019-02-14T12:06:42.794Z,25.20
2019-02-14T12:09:26.090Z,23.23
2019-02-14T12:12:03.202Z,23.73
2019-02-14T12:14:40.027Z,23.30
2019-02-14T12:17:13.071Z,24.87
2019-02-14T12:19:48.950Z,20.70
2019-02-14T12:22:31.657Z,22.33
2019-02-14T12:25:11.619Z,24.70
2019-02-14T12:27:51.669Z,26.20
2019-02-14T12:30:34.169Z,24.40
2019-02-14T12:33:15.356Z,31.23
2019-02-14T12:35:53.258Z,20.33
2019-02-14T12:38:35.062Z,19.33
2019-02-14T12:41:13.757Z,23.63
2019-02-14T12:44:06.621Z,22.43
2019-02-14T12:46:51.514Z,23.37
2019-02-14T12:49:30.108Z,22.47
2019-02-14T12:52:11.239Z,25.13
2019-02-14T12:54:47.653Z,24.30
2019-02-14T12:57:30.343Z,25.43
2019-02-14T13:00:07.025Z,23.30
2019-02-14T13:02:41.191Z,25.07
2019-02-14T13:05:20.776Z,23.07
2019-02-14T13:07:58.888Z,23.73
2019-02-14T13:10:41.482Z,22.90
2019-02-14T13:13:14.120Z,27.27
2019-02-14T13:15:53.992Z,23.07
2019-02-14T13:18:30.062Z,21.83
2019-02-14T13:21:15.122Z,24.90
2019-02-14T13:23:56.217Z,23.00
2019-02-14T13:26:32.009Z,23.77
2019-02-14T13:29:11.506Z,24.53
2019-02-14T13:31:54.373Z,29.13
2019-02-14T13:34:31.668Z,23.50
2019-02-14T13:37:09.340Z,24.77
2019-02-14T13:39:47.133Z,23.47
2019-02-14T13:42:30.073Z,27.17
2019-02-14T13:45:08.443Z,25.13
2019-02-14T13:48:01.220Z,22.63
2019-02-14T13:50:44.515Z,23.37
2019-02-14T13:53:33.947Z,23.87
2019-02-14T13:56:08.010Z,19.30
2019-02-14T13:58:44.201Z,23.70
2019-02-14T14:01:16.800Z,20.40
2019-02-14T14:03:47.944Z,21.07
2019-02-14T14:06:41.199Z,22.20
2019-02-14T14:09:18.271Z,22.10
2019-02-14T14:11:56.830Z,27.30
2019-02-14T14:14:31.384Z,24.73
2019-02-14T14:17:04.201Z,23.87
2019-02-14T14:19:42.604Z,21.60
2019-02-14T14:22:14.886Z,21.77
2019-02-14T14:24:44.155Z,24.43
2019-02-14T14:27:16.035Z,22.20
2019-02-14T14:29:46.823Z,23.70
2019-02-14T14:32:18.959Z,22.03
2019-02-14T14:34:53.246Z,21.37
2019-02-14T14:37:25.401Z,22.60
2019-02-14T14:39:57.288Z,21.97
2019-02-14T14:42:39.337Z,24.03
2019-02-14T14:48:04.867Z,23.27
2019-02-14T14:50:37.974Z,18.73
2019-02-14T14:53:10.350Z,21.40
2019-02-14T14:55:42.532Z,22.20
2019-02-14T14:58:15.660Z,25.67
2019-02-14T15:00:47.853Z,23.67
2019-02-14T15:03:18.482Z,19.70
2019-02-14T15:05:55.246Z,21.80
2019-02-14T15:08:25.761Z,22.37
2019-02-14T15:10:57.390Z,19.87
2019-02-14T15:13:29.635Z,20.50
2019-02-14T15:16:01.223Z,20.87
2019-02-14T15:18:36.055Z,24.47
2019-02-14T15:21:10.579Z,17.70
2019-02-14T15:26:34.461Z,18.17
2019-02-14T15:29:11.296Z,19.77
2019-02-14T15:31:45.248Z,22.43
2019-02-14T15:34:20.251Z,25.60
2019-02-14T15:36:59.711Z,18.60
2019-02-14T15:39:36.154Z,18.80
2019-02-14T15:42:11.293Z,22.53
2019-02-14T15:44:51.989Z,19.30
2019-02-14T15:47:32.423Z,17.93
2019-02-14T15:50:09.428Z,19.37
2019-02-14T15:52:47.561Z,23.33
2019-02-14T15:55:24.327Z,17.90
2019-02-14T15:58:04.490Z,20.70
2019-02-14T16:00:46.792Z,20.27
2019-02-14T16:03:22.501Z,23.33
2019-02-14T16:05:56.996Z,23.17
2019-02-14T16:08:35.330Z,24.27
2019-02-14T16:11:14.295Z,23.20
2019-02-14T16:13:49.994Z,26.53
2019-02-14T16:16:28.935Z,19.67
2019-02-14T16:19:08.722Z,20.43
2019-02-14T16:21:44.808Z,20.93
2019-02-14T16:24:21.252Z,21.20
2019-02-14T16:26:59.240Z,17.73
2019-02-14T16:29:38.494Z,26.77
2019-02-14T16:32:14.337Z,21.87
2019-02-14T16:34:43.507Z,19.43
2019-02-14T16:37:13.169Z,22.13
2019-02-14T16:39:51.870Z,17.97
2019-02-14T16:42:39.028Z,22.60
2019-02-14T16:45:12.809Z,21.03
2019-02-14T16:47:51.377Z,18.87
2019-02-14T16:50:29.329Z,20.57
2019-02-14T16:53:24.151Z,18.73
2019-02-14T16:56:02.030Z,20.40
2019-02-14T16:58:39.581Z,22.73
2019-02-14T17:01:19.016Z,24.13
2019-02-14T17:03:54.294Z,22.67
2019-02-14T17:06:34.550Z,21.23
2019-02-14T17:09:08.422Z,21.53
2019-02-14T17:11:46.680Z,21.37
2019-02-14T17:14:24.497Z,20.17
2019-02-14T17:17:02.356Z,24.20
2019-02-14T17:19:40.887Z,23.50
2019-02-14T17:22:15.112Z,26.03
2019-02-14T17:24:50.067Z,21.63
2019-02-14T17:27:22.270Z,23.83
2019-02-14T17:30:01.618Z,23.07
2019-02-14T17:32:35.546Z,25.30
2019-02-14T17:35:07.893Z,23.90
2019-02-14T17:37:50.767Z,23.50
2019-02-14T17:40:31.971Z,26.10
2019-02-14T17:43:08.325Z,23.73
2019-02-14T17:45:40.979Z,21.00
2019-02-14T17:48:19.892Z,25.73
2019-02-14T17:50:54.017Z,22.77
2019-02-14T17:53:24.989Z,20.53
2019-02-14T17:56:05.793Z,22.80
2019-02-14T17:58:43.624Z,22.77
2019-02-14T18:01:17.595Z,18.17
2019-02-14T18:04:13.267Z,25.10
2019-02-14T18:07:06.888Z,23.47
2019-02-14T18:09:48.578Z,19.93
2019-02-14T18:12:27.888Z,24.27
2019-02-14T18:15:03.238Z,22.57
2019-02-14T18:17:45.420Z,26.43
2019-02-14T18:20:24.912Z,23.87
2019-02-14T18:22:55.448Z,26.50
2019-02-14T18:25:31.838Z,26.87
2019-02-14T18:28:10.700Z,22.93
2019-02-14T18:30:53.567Z,27.00
2019-02-14T18:33:36.479Z,22.93
2019-02-14T18:36:13.464Z,26.20
2019-02-14T18:38:53.665Z,34.70
2019-02-14T18:41:32.181Z,31.07
2019-02-14T18:44:29.223Z,20.27
2019-02-14T18:47:10.593Z,24.47
2019-02-14T18:49:48.157Z,29.57
2019-02-14T18:52:27.892Z,28.13
2019-02-14T18:55:05.673Z,31.80
2019-02-14T18:57:44.558Z,37.97
2019-02-14T19:00:25.824Z,31.63
2019-02-14T19:03:01.989Z,31.80
2019-02-14T19:05:40.958Z,27.83
2019-02-14T19:08:16.642Z,22.93
2019-02-14T19:10:49.404Z,29.43
2019-02-14T19:13:24.134Z,24.60
2019-02-14T19:15:53.302Z,27.60
2019-02-14T19:18:30.567Z,25.43
2019-02-14T19:21:10.023Z,29.23
2019-02-14T19:23:47.870Z,25.23
2019-02-14T19:26:25.018Z,24.93
2019-02-14T19:29:04.168Z,34.20
2019-02-14T19:31:45.742Z,36.13
2019-02-14T19:34:25.441Z,29.87
2019-02-14T19:36:54.400Z,28.57
2019-02-14T19:39:22.878Z,30.87
2019-02-14T19:41:51.373Z,26.30
2019-02-14T19:44:19.852Z,26.27
2019-02-14T19:46:50.030Z,27.80
2019-02-14T19:49:18.699Z,24.23
2019-02-14T19:51:47.181Z,23.70
2019-02-14T19:54:15.657Z,21.23
2019-02-14T19:56:44.187Z,25.83
2019-02-14T19:59:12.661Z,27.47
2019-02-14T20:01:41.155Z,27.17
2019-02-14T20:04:09.619Z,25.07
2019-02-14T20:06:38.108Z,25.60
2019-02-14T20:09:07.160Z,19.27
2019-02-14T20:11:37.102Z,23.57
2019-02-14T20:14:05.938Z,27.17
2019-02-14T20:16:34.452Z,22.03
2019-02-14T20:19:03.019Z,20.87
2019-02-14T20:21:31.476Z,21.37
2019-02-14T20:23:59.970Z,25.60
2019-02-14T20:26:28.441Z,19.57
2019-02-14T20:28:56.939Z,15.87
2019-02-14T20:31:25.421Z,19.73
2019-02-14T20:33:53.930Z,18.77
2019-02-14T20:36:22.411Z,18.57
2019-02-14T20:38:50.914Z,21.33
2019-02-14T20:41:19.407Z,16.63
2019-02-14T20:43:47.892Z,18.57
2019-02-14T20:46:16.353Z,15.67
2019-02-14T20:48:44.850Z,17.63
2019-02-14T20:51:13.333Z,18.67
2019-02-14T20:53:41.813Z,15.60
2019-02-14T20:56:10.296Z,17.07
2019-02-14T20:58:38.775Z,15.10
2019-02-14T21:01:08.881Z,14.20
2019-02-14T21:03:37.374Z,16.67
2019-02-14T21:06:05.951Z,15.60
2019-02-14T21:08:34.443Z,15.93
2019-02-14T21:11:02.909Z,16.70
2019-02-14T21:13:31.407Z,13.57
2019-02-14T21:15:59.874Z,13.13
2019-02-14T21:18:28.369Z,16.27
2019-02-14T21:20:56.840Z,19.70
2019-02-14T21:23:25.340Z,16.70
2019-02-14T21:25:54.876Z,16.97
2019-02-14T21:28:23.358Z,15.57
2019-02-14T21:30:51.846Z,14.43
2019-02-14T21:33:20.342Z,14.70
2019-02-14T21:35:48.796Z,17.47
2019-02-14T21:38:17.325Z,17.23
2019-02-14T21:40:45.806Z,15.47
2019-02-14T21:43:14.342Z,15.37
2019-02-14T21:45:42.829Z,14.33
2019-02-14T21:48:11.307Z,13.27
2019-02-14T21:50:39.805Z,16.90
2019-02-14T21:53:08.293Z,14.37
2019-02-14T21:55:36.833Z,13.93
2019-02-14T21:58:05.980Z,13.10
2019-02-14T22:00:34.959Z,15.30
2019-02-14T22:03:03.445Z,14.30
2019-02-14T22:05:32.006Z,15.27
2019-02-14T22:08:00.464Z,15.27
2019-02-14T22:10:28.954Z,15.80
2019-02-14T22:12:57.420Z,16.13
2019-02-14T22:15:28.314Z,13.90
2019-02-14T22:17:56.790Z,13.33
2019-02-14T22:20:25.260Z,14.10
2019-02-14T22:22:53.723Z,14.80
2019-02-14T22:25:22.225Z,14.73
2019-02-14T22:27:50.689Z,15.63
2019-02-14T22:30:19.183Z,13.67
2019-02-14T22:32:47.673Z,15.60
2019-02-14T22:35:16.341Z,15.67
2019-02-14T22:37:44.975Z,16.20
2019-02-14T22:40:14.310Z,19.10
2019-02-14T22:42:46.962Z,13.93
2019-02-14T22:45:15.294Z,15.33
2019-02-14T22:47:44.950Z,13.00
2019-02-14T22:50:13.897Z,18.10
2019-02-14T22:52:42.369Z,16.03
2019-02-14T22:55:14.353Z,15.73
2019-02-14T22:57:42.797Z,14.40
2019-02-14T23:00:34.104Z,15.20
2019-02-14T23:03:02.592Z,14.03
2019-02-14T23:05:31.069Z,16.67
2019-02-14T23:07:59.544Z,16.40
2019-02-14T23:10:28.211Z,14.83
2019-02-14T23:12:56.711Z,18.77
2019-02-14T23:15:25.198Z,13.60
2019-02-14T23:17:53.672Z,16.10
2019-02-14T23:20:22.163Z,17.87
2019-02-14T23:22:50.640Z,14.97
2019-02-14T23:25:19.135Z,17.07
2019-02-14T23:27:47.643Z,14.97
2019-02-14T23:30:16.112Z,16.73
2019-02-14T23:32:44.578Z,16.37
2019-02-14T23:35:13.136Z,14.90
2019-02-14T23:37:41.575Z,14.47
2019-02-14T23:40:10.129Z,16.27
2019-02-14T23:42:38.612Z,14.23
2019-02-14T23:45:09.546Z,15.23
2019-02-14T23:47:38.018Z,17.10
2019-02-14T23:50:08.841Z,14.70
2019-02-14T23:52:37.312Z,16.53
2019-02-14T23:55:07.438Z,16.70
2019-02-14T23:57:35.906Z,15.53
